createdAt,value
2018-09-30T00:01:05.281Z,45.7
2018-09-30T00:06:01.944Z,45.8
2018-09-30T00:10:57.927Z,45.9
2018-09-30T00:15:54.385Z,45.9
2018-09-30T00:20:50.539Z,46.1
2018-09-30T00:25:46.976Z,46
2018-09-30T00:30:43.503Z,46
2018-09-30T00:35:39.805Z,46
2018-09-30T00:40:36.236Z,46.1
2018-09-30T00:45:32.482Z,46.4
2018-09-30T00:50:28.648Z,46.4
2018-09-30T00:55:25.578Z,46.5
2018-09-30T01:00:21.762Z,46.8
2018-09-30T01:05:18.402Z,46.8
2018-09-30T01:10:14.637Z,46.9
2018-09-30T01:15:10.628Z,47.3
2018-09-30T01:20:06.854Z,47.1
2018-09-30T01:25:03.302Z,47.2
2018-09-30T01:29:59.791Z,47.5
2018-09-30T01:34:55.947Z,47.4
2018-09-30T01:39:51.934Z,47.8
2018-09-30T01:44:48.023Z,48.1
2018-09-30T01:49:44.083Z,48.2
2018-09-30T01:54:40.409Z,48.3
2018-09-30T01:59:36.734Z,48.5
2018-09-30T02:04:33.444Z,48.9
2018-09-30T02:09:29.874Z,49.2
2018-09-30T02:14:26.293Z,49.2
2018-09-30T02:19:22.353Z,49.4
2018-09-30T02:24:18.406Z,49.5
2018-09-30T02:29:14.634Z,49.4
2018-09-30T02:34:11.128Z,49.5
2018-09-30T02:39:07.197Z,49.6
2018-09-30T02:44:03.604Z,49.7
2018-09-30T02:48:59.743Z,50
2018-09-30T02:53:55.912Z,50
2018-09-30T02:58:52.397Z,50.3
2018-09-30T03:03:49.734Z,50.3
2018-09-30T03:08:45.625Z,50.1
2018-09-30T03:13:41.918Z,50.1
2018-09-30T03:18:38.181Z,50
2018-09-30T03:23:34.796Z,50
2018-09-30T03:28:30.782Z,49.9
2018-09-30T03:33:26.842Z,49.6
2018-09-30T03:38:23.005Z,50
2018-09-30T03:43:19.200Z,49.9
2018-09-30T03:48:14.968Z,49.9
2018-09-30T03:53:11.138Z,50
2018-09-30T03:58:07.557Z,49.9
2018-09-30T04:03:04.417Z,49.9
2018-09-30T04:08:00.694Z,50.2
2018-09-30T04:12:57.323Z,50
2018-09-30T04:17:53.603Z,49.9
2018-09-30T04:22:49.923Z,50.1
2018-09-30T04:27:46.490Z,50.1
2018-09-30T04:32:42.499Z,50.1
2018-09-30T04:37:38.680Z,50.2
2018-09-30T04:42:34.943Z,50.4
2018-09-30T04:47:31.489Z,50.4
2018-09-30T04:52:28.081Z,50.6
2018-09-30T04:57:24.468Z,50.5
2018-09-30T05:02:20.669Z,50.3
2018-09-30T05:07:16.730Z,50.8
2018-09-30T05:12:12.721Z,51
2018-09-30T05:17:08.503Z,51.3
2018-09-30T05:22:04.794Z,51.5
2018-09-30T05:27:00.693Z,51.3
2018-09-30T05:31:56.925Z,51.5
2018-09-30T05:36:53.322Z,51.5
2018-09-30T05:41:49.831Z,52
2018-09-30T05:46:46.085Z,52.1
2018-09-30T05:51:42.245Z,52.1
2018-09-30T05:56:38.566Z,52
2018-09-30T06:01:34.813Z,52.5
2018-09-30T06:06:31.040Z,52.6
2018-09-30T06:11:27.823Z,52.8
2018-09-30T06:16:23.380Z,52.6
2018-09-30T06:21:19.630Z,53.3
2018-09-30T06:26:16.020Z,52.8
2018-09-30T06:31:12.676Z,52.9
2018-09-30T06:36:08.902Z,52.8
2018-09-30T06:41:05.514Z,53
2018-09-30T06:46:02.017Z,52.7
2018-09-30T06:50:58.218Z,52.6
2018-09-30T06:55:54.555Z,52.5
2018-09-30T07:00:51.026Z,52.4
2018-09-30T07:05:46.945Z,52.2
2018-09-30T07:10:44.354Z,52
2018-09-30T07:15:40.043Z,51.8
2018-09-30T07:20:36.486Z,51.7
2018-09-30T07:25:32.783Z,51.5
2018-09-30T07:30:29.013Z,51.2
2018-09-30T07:35:25.246Z,51
2018-09-30T07:40:21.417Z,51
2018-09-30T07:45:17.102Z,50.9
2018-09-30T07:50:13.655Z,51
2018-09-30T07:55:09.628Z,50.9
2018-09-30T08:00:07.542Z,51.1
2018-09-30T08:05:03.701Z,51
2018-09-30T08:09:59.961Z,51.4
2018-09-30T08:14:56.233Z,51.3
2018-09-30T08:19:52.300Z,51.5
2018-09-30T08:24:49.255Z,51.4
2018-09-30T08:29:46.713Z,51.4
2018-09-30T08:34:43.442Z,51.1
2018-09-30T08:39:39.426Z,50.8
2018-09-30T08:44:35.872Z,50.8
2018-09-30T08:49:32.862Z,50.6
2018-09-30T08:54:35.641Z,50.5
2018-09-30T08:59:39.764Z,50.4
2018-09-30T09:04:36.639Z,50.6
2018-09-30T09:09:32.930Z,50.3
2018-09-30T09:14:28.585Z,50.1
2018-09-30T09:19:24.860Z,50.2
2018-09-30T09:24:20.928Z,50.1
2018-09-30T09:29:17.381Z,49.9
2018-09-30T09:34:13.616Z,49.8
2018-09-30T09:39:09.854Z,49.7
2018-09-30T09:44:06.294Z,49.7
2018-09-30T09:49:02.676Z,49.3
2018-09-30T09:53:59.260Z,49.2
2018-09-30T09:58:56.148Z,49
2018-09-30T10:03:52.084Z,48.9
2018-09-30T10:08:48.417Z,48.6
2018-09-30T10:13:44.836Z,48.4
2018-09-30T10:18:41.294Z,48.3
2018-09-30T10:23:37.673Z,48.1
2018-09-30T10:28:34.629Z,48.2
2018-09-30T10:33:30.888Z,48
2018-09-30T10:38:27.257Z,47.8
2018-09-30T10:43:23.498Z,47.7
2018-09-30T10:48:20.017Z,47.7
2018-09-30T10:53:16.520Z,48
2018-09-30T10:58:13.768Z,47.9
2018-09-30T11:03:09.763Z,48.1
2018-09-30T11:08:06.034Z,48.2
2018-09-30T11:13:02.322Z,48.3
2018-09-30T11:17:58.473Z,48.3
2018-09-30T11:22:55.372Z,48.4
2018-09-30T11:27:52.012Z,48.7
2018-09-30T11:32:48.090Z,48.6
2018-09-30T11:37:44.390Z,48.8
2018-09-30T11:42:40.828Z,48.7
2018-09-30T11:47:36.495Z,48.8
2018-09-30T11:52:33.040Z,48.8
2018-09-30T11:57:28.963Z,48.7
2018-09-30T12:02:25.622Z,48.8
2018-09-30T12:07:22.094Z,48.9
2018-09-30T12:12:18.195Z,48.9
2018-09-30T12:17:14.462Z,49.1
2018-09-30T12:22:10.953Z,49.3
2018-09-30T12:27:07.911Z,49.1
2018-09-30T12:32:04.487Z,49
2018-09-30T12:37:00.745Z,49
2018-09-30T12:41:57.198Z,49.1
2018-09-30T12:46:53.499Z,49.2
2018-09-30T12:51:49.674Z,49.3
2018-09-30T12:56:46.607Z,49.4
2018-09-30T13:01:42.780Z,49.3
2018-09-30T13:06:39.442Z,49.2
2018-09-30T13:11:35.830Z,49.1
2018-09-30T13:16:32.192Z,49.1
2018-09-30T13:21:28.471Z,49.1
2018-09-30T13:26:24.734Z,49.2
2018-09-30T13:31:21.082Z,49.2
2018-09-30T13:36:17.608Z,49.3
2018-09-30T13:41:14.284Z,49
2018-09-30T13:46:10.942Z,49.1
2018-09-30T13:51:07.188Z,49.3
2018-09-30T13:56:03.604Z,49.4
2018-09-30T14:01:00.225Z,49.5
2018-09-30T14:05:57.302Z,49.9
2018-09-30T14:10:52.876Z,49.8
2018-09-30T14:15:49.267Z,50
2018-09-30T14:20:45.576Z,49.9
2018-09-30T14:25:41.853Z,50.1
2018-09-30T14:30:38.225Z,50
2018-09-30T14:35:34.484Z,50.4
2018-09-30T14:40:30.793Z,50.2
2018-09-30T14:45:27.276Z,50.8
2018-09-30T14:50:23.815Z,50.7
2018-09-30T14:55:20.045Z,50.8
2018-09-30T15:00:16.275Z,51.1
2018-09-30T15:05:12.709Z,51.2
2018-09-30T15:10:08.921Z,51.3
2018-09-30T15:15:06.955Z,51.6
2018-09-30T15:20:03.152Z,51.7
2018-09-30T15:24:59.196Z,51.9
2018-09-30T15:29:55.158Z,52.5
2018-09-30T15:34:51.573Z,53.6
2018-09-30T15:39:47.854Z,54.1
2018-09-30T15:44:44.379Z,54.8
2018-09-30T15:49:40.593Z,55.1
2018-09-30T15:54:37.348Z,54.9
2018-09-30T15:59:33.645Z,55.6
2018-09-30T16:04:29.908Z,55.6
2018-09-30T16:09:26.075Z,56.2
2018-09-30T16:14:22.395Z,56.5
2018-09-30T16:19:18.829Z,57
2018-09-30T16:24:15.394Z,56.8
2018-09-30T16:29:11.548Z,57.4
2018-09-30T16:34:07.416Z,57.6
2018-09-30T16:39:03.806Z,57.9
2018-09-30T16:44:00.100Z,58.1
2018-09-30T16:48:56.416Z,59.1
2018-09-30T16:53:52.788Z,59.4
2018-09-30T16:58:48.988Z,59
2018-09-30T17:03:45.752Z,59
2018-09-30T17:08:41.900Z,59.2
2018-09-30T17:13:38.112Z,59.2
2018-09-30T17:18:34.299Z,59.2
2018-09-30T17:23:30.470Z,59.2
2018-09-30T17:28:26.568Z,58.9
2018-09-30T17:33:22.654Z,59.3
2018-09-30T17:38:18.956Z,59.3
2018-09-30T17:43:15.280Z,59.5
2018-09-30T17:48:11.653Z,59.5
2018-09-30T17:53:07.839Z,59.8
2018-09-30T17:58:04.259Z,59.4
2018-09-30T18:03:00.418Z,59.4
2018-09-30T18:07:56.739Z,59.5
2018-09-30T18:12:53.142Z,59.1
2018-09-30T18:17:49.481Z,59.3
2018-09-30T18:22:45.791Z,59.3
2018-09-30T18:27:42.091Z,59.1
2018-09-30T18:32:38.586Z,59.1
2018-09-30T18:37:34.889Z,58.9
2018-09-30T18:42:31.025Z,59.2
2018-09-30T18:47:28.239Z,59.6
2018-09-30T18:52:24.773Z,59.5
2018-09-30T18:57:20.979Z,59.4
2018-09-30T19:02:16.532Z,59.7
2018-09-30T19:07:12.956Z,60.2
2018-09-30T19:12:09.530Z,59.9
2018-09-30T19:17:05.832Z,60.2
2018-09-30T19:22:01.988Z,60.6
2018-09-30T19:26:58.645Z,60.1
2018-09-30T19:31:54.904Z,60.3
2018-09-30T19:36:51.352Z,60.3
2018-09-30T19:41:47.616Z,60.4
2018-09-30T19:46:43.814Z,60.2
2018-09-30T19:51:40.343Z,60.5
2018-09-30T19:56:36.800Z,60.2
2018-09-30T20:01:33.397Z,59.9
2018-09-30T20:06:29.329Z,60.3
2018-09-30T20:11:25.462Z,60.4
2018-09-30T20:16:21.735Z,60.1
2018-09-30T20:21:18.473Z,60.2
2018-09-30T20:26:14.455Z,60.6
2018-09-30T20:31:10.448Z,60.4
2018-09-30T20:36:06.697Z,60.3
2018-09-30T20:41:02.764Z,60.4
2018-09-30T20:45:59.269Z,60
2018-09-30T20:50:55.751Z,60.1
2018-09-30T20:55:51.804Z,60.3
2018-09-30T21:00:47.924Z,60.2
2018-09-30T21:05:44.156Z,60.4
2018-09-30T21:10:40.520Z,60
2018-09-30T21:15:36.803Z,60.1
2018-09-30T21:20:33.174Z,60.3
2018-09-30T21:25:29.163Z,60
2018-09-30T21:30:25.499Z,60.2
2018-09-30T21:35:21.878Z,60.6
2018-09-30T21:40:18.328Z,60.6
2018-09-30T21:45:14.690Z,60.4
2018-09-30T21:50:11.285Z,60.8
2018-09-30T21:55:07.835Z,60.5
2018-09-30T22:00:04.529Z,60.8
2018-09-30T22:05:00.567Z,60.7
2018-09-30T22:09:56.817Z,60.4
2018-09-30T22:14:53.180Z,60.8
2018-09-30T22:19:49.574Z,61
2018-09-30T22:24:46.067Z,60.9
2018-09-30T22:29:42.379Z,60.9
2018-09-30T22:34:38.702Z,60.9
2018-09-30T22:39:35.573Z,61.1
2018-09-30T22:44:31.707Z,60.9
2018-09-30T22:49:28.164Z,61
2018-09-30T22:54:24.765Z,61
2018-09-30T22:59:21.672Z,60.9
2018-09-30T23:04:17.971Z,61
2018-09-30T23:09:14.070Z,60.9
2018-09-30T23:14:10.301Z,61
2018-09-30T23:19:05.542Z,60.7
2018-09-30T23:24:01.916Z,60.9
2018-09-30T23:28:57.882Z,61
2018-09-30T23:33:59.565Z,60.8
2018-09-30T23:38:54.066Z,61.1
2018-09-30T23:43:50.342Z,61.1
2018-09-30T23:48:46.651Z,61.3
2018-09-30T23:53:42.833Z,61.2
2018-09-30T23:58:39.510Z,61.5
